sensor_id;sensor_type;location;lat;lon;timestamp;pressure;altitude;pressure_sealevel;temperature;humidity
11987;BME280;6053;51.382;6.768;2024-01-27T00:00:56;103273.69;;;10.69;60.65
11987;BME280;6053;51.382;6.768;2024-01-27T00:03:28;103275.81;;;9.86;63.37
11987;BME280;6053;51.382;6.768;2024-01-27T00:06:00;103270.50;;;10.93;59.83
11987;BME280;6053;51.382;6.768;2024-01-27T00:08:30;103274.06;;;11.23;58.69
11987;BME280;6053;51.382;6.768;2024-01-27T00:11:01;103274.28;;;10.81;56.73
11987;BME280;6053;51.382;6.768;2024-01-27T00:13:36;103275.72;;;11.31;58.23
11987;BME280;6053;51.382;6.768;2024-01-27T00:16:08;103283.03;;;11.16;58.38
11987;BME280;6053;51.382;6.768;2024-01-27T00:18:43;103279.38;;;10.54;60.00
11987;BME280;6053;51.382;6.768;2024-01-27T00:21:13;103275.94;;;10.60;60.28
11987;BME280;6053;51.382;6.768;2024-01-27T00:23:41;103284.03;;;9.22;64.07
11987;BME280;6053;51.382;6.768;2024-01-27T00:26:10;103288.44;;;10.76;60.15
11987;BME280;6053;51.382;6.768;2024-01-27T00:28:38;103290.75;;;10.74;59.32
11987;BME280;6053;51.382;6.768;2024-01-27T00:31:09;103288.25;;;10.92;59.17
11987;BME280;6053;51.382;6.768;2024-01-27T00:33:37;103285.88;;;10.65;58.75
11987;BME280;6053;51.382;6.768;2024-01-27T00:36:06;103287.50;;;10.69;58.19
11987;BME280;6053;51.382;6.768;2024-01-27T00:38:41;103286.53;;;11.10;58.61
11987;BME280;6053;51.382;6.768;2024-01-27T00:41:23;103284.34;;;11.22;57.67
11987;BME280;6053;51.382;6.768;2024-01-27T00:44:01;103288.78;;;11.01;58.42
11987;BME280;6053;51.382;6.768;2024-01-27T00:46:32;103293.75;;;11.18;58.02
11987;BME280;6053;51.382;6.768;2024-01-27T00:49:00;103297.53;;;11.06;57.80
11987;BME280;6053;51.382;6.768;2024-01-27T00:51:35;103302.66;;;11.04;58.33
11987;BME280;6053;51.382;6.768;2024-01-27T00:54:04;103306.25;;;11.08;58.22
11987;BME280;6053;51.382;6.768;2024-01-27T00:56:42;103314.72;;;11.19;57.75
11987;BME280;6053;51.382;6.768;2024-01-27T00:59:13;103314.38;;;10.98;58.26
11987;BME280;6053;51.382;6.768;2024-01-27T01:01:45;103316.47;;;11.04;58.06
11987;BME280;6053;51.382;6.768;2024-01-27T01:04:24;103313.56;;;11.23;57.57
11987;BME280;6053;51.382;6.768;2024-01-27T01:06:53;103316.09;;;11.06;57.95
11987;BME280;6053;51.382;6.768;2024-01-27T01:09:26;103309.53;;;11.17;57.57
11987;BME280;6053;51.382;6.768;2024-01-27T01:11:54;103315.13;;;11.21;57.44
11987;BME280;6053;51.382;6.768;2024-01-27T01:14:32;103315.53;;;11.23;57.20
11987;BME280;6053;51.382;6.768;2024-01-27T01:17:00;103318.34;;;10.97;58.13
11987;BME280;6053;51.382;6.768;2024-01-27T01:19:29;103321.47;;;11.21;57.31
11987;BME280;6053;51.382;6.768;2024-01-27T01:21:57;103317.09;;;11.20;57.21
11987;BME280;6053;51.382;6.768;2024-01-27T01:24:35;103314.75;;;11.22;57.18
11987;BME280;6053;51.382;6.768;2024-01-27T01:27:04;103311.19;;;11.22;56.89
11987;BME280;6053;51.382;6.768;2024-01-27T01:29:33;103304.81;;;11.18;57.17
11987;BME280;6053;51.382;6.768;2024-01-27T01:32:02;103313.38;;;11.09;57.25
11987;BME280;6053;51.382;6.768;2024-01-27T01:34:33;103306.66;;;11.10;57.22
11987;BME280;6053;51.382;6.768;2024-01-27T01:37:03;103307.88;;;11.13;57.15
11987;BME280;6053;51.382;6.768;2024-01-27T01:39:33;103307.59;;;11.18;56.94
11987;BME280;6053;51.382;6.768;2024-01-27T01:42:02;103318.16;;;11.12;57.03
11987;BME280;6053;51.382;6.768;2024-01-27T01:44:31;103316.19;;;11.13;56.99
11987;BME280;6053;51.382;6.768;2024-01-27T01:47:00;103315.00;;;11.14;56.82
11987;BME280;6053;51.382;6.768;2024-01-27T01:49:31;103321.75;;;11.16;56.74
11987;BME280;6053;51.382;6.768;2024-01-27T01:52:04;103320.19;;;11.15;56.72
11987;BME280;6053;51.382;6.768;2024-01-27T01:54:34;103325.34;;;11.17;56.52
11987;BME280;6053;51.382;6.768;2024-01-27T01:57:04;103324.91;;;11.15;56.51
11987;BME280;6053;51.382;6.768;2024-01-27T01:59:35;103328.78;;;11.10;56.71
11987;BME280;6053;51.382;6.768;2024-01-27T02:02:08;103321.25;;;11.07;56.68
11987;BME280;6053;51.382;6.768;2024-01-27T02:04:51;103317.69;;;11.07;56.56
11987;BME280;6053;51.382;6.768;2024-01-27T02:07:20;103327.59;;;11.08;56.53
11987;BME280;6053;51.382;6.768;2024-01-27T02:09:52;103329.56;;;11.07;56.52
11987;BME280;6053;51.382;6.768;2024-01-27T02:12:24;103327.59;;;11.08;56.37
11987;BME280;6053;51.382;6.768;2024-01-27T02:14:56;103321.94;;;11.01;56.55
11987;BME280;6053;51.382;6.768;2024-01-27T02:17:30;103317.16;;;10.98;56.59
11987;BME280;6053;51.382;6.768;2024-01-27T02:19:59;103322.34;;;10.99;56.46
11987;BME280;6053;51.382;6.768;2024-01-27T02:22:29;103322.22;;;10.92;56.59
11987;BME280;6053;51.382;6.768;2024-01-27T02:25:03;103323.44;;;10.95;56.59
11987;BME280;6053;51.382;6.768;2024-01-27T02:27:32;103318.75;;;10.99;56.31
11987;BME280;6053;51.382;6.768;2024-01-27T02:30:04;103318.31;;;10.93;56.55
11987;BME280;6053;51.382;6.768;2024-01-27T02:32:33;103315.88;;;10.92;56.47
11987;BME280;6053;51.382;6.768;2024-01-27T02:35:01;103322.22;;;10.92;56.39
11987;BME280;6053;51.382;6.768;2024-01-27T02:37:30;103322.97;;;10.89;56.43
11987;BME280;6053;51.382;6.768;2024-01-27T02:40:03;103324.94;;;10.89;56.43
11987;BME280;6053;51.382;6.768;2024-01-27T02:42:31;103320.59;;;10.88;56.39
11987;BME280;6053;51.382;6.768;2024-01-27T02:45:00;103324.13;;;10.88;56.31
11987;BME280;6053;51.382;6.768;2024-01-27T02:47:29;103331.16;;;10.82;56.50
11987;BME280;6053;51.382;6.768;2024-01-27T02:49:59;103326.13;;;10.88;56.29
11987;BME280;6053;51.382;6.768;2024-01-27T02:52:28;103330.03;;;10.87;56.22
11987;BME280;6053;51.382;6.768;2024-01-27T02:55:03;103322.47;;;10.84;56.33
11987;BME280;6053;51.382;6.768;2024-01-27T02:57:38;103322.91;;;10.86;56.16
11987;BME280;6053;51.382;6.768;2024-01-27T03:00:11;103327.59;;;10.82;56.09
11987;BME280;6053;51.382;6.768;2024-01-27T03:02:46;103340.56;;;10.78;56.25
11987;BME280;6053;51.382;6.768;2024-01-27T03:05:14;103326.34;;;10.79;56.18
11987;BME280;6053;51.382;6.768;2024-01-27T03:07:49;103326.75;;;10.78;55.99
11987;BME280;6053;51.382;6.768;2024-01-27T03:10:21;103323.13;;;10.74;56.24
11987;BME280;6053;51.382;6.768;2024-01-27T03:12:52;103327.84;;;10.73;56.16
11987;BME280;6053;51.382;6.768;2024-01-27T03:15:27;103326.31;;;10.76;56.06
11987;BME280;6053;51.382;6.768;2024-01-27T03:17:55;103329.44;;;10.74;56.00
11987;BME280;6053;51.382;6.768;2024-01-27T03:20:24;103327.84;;;10.73;56.14
11987;BME280;6053;51.382;6.768;2024-01-27T03:22:53;103328.91;;;10.65;56.19
11987;BME280;6053;51.382;6.768;2024-01-27T03:25:23;103321.81;;;10.65;56.11
11987;BME280;6053;51.382;6.768;2024-01-27T03:27:52;103334.09;;;10.67;55.94
11987;BME280;6053;51.382;6.768;2024-01-27T03:30:24;103336.41;;;10.65;55.95
11987;BME280;6053;51.382;6.768;2024-01-27T03:33:00;103325.75;;;10.64;56.12
11987;BME280;6053;51.382;6.768;2024-01-27T03:35:29;103333.66;;;10.65;55.89
11987;BME280;6053;51.382;6.768;2024-01-27T03:38:00;103339.56;;;10.64;55.99
11987;BME280;6053;51.382;6.768;2024-01-27T03:40:41;103339.13;;;10.62;55.97
11987;BME280;6053;51.382;6.768;2024-01-27T03:43:16;103346.97;;;10.60;55.86
11987;BME280;6053;51.382;6.768;2024-01-27T03:45:44;103348.56;;;10.61;55.95
11987;BME280;6053;51.382;6.768;2024-01-27T03:48:13;103350.13;;;10.58;56.04
11987;BME280;6053;51.382;6.768;2024-01-27T03:50:42;103347.41;;;10.62;55.72
11987;BME280;6053;51.382;6.768;2024-01-27T03:53:14;103337.78;;;10.52;55.83
11987;BME280;6053;51.382;6.768;2024-01-27T03:55:56;103341.78;;;10.55;55.85
11987;BME280;6053;51.382;6.768;2024-01-27T03:58:27;103342.16;;;10.53;55.89
11987;BME280;6053;51.382;6.768;2024-01-27T04:00:57;103340.50;;;10.49;56.05
11987;BME280;6053;51.382;6.768;2024-01-27T04:03:26;103350.31;;;10.46;55.94
11987;BME280;6053;51.382;6.768;2024-01-27T04:05:55;103345.63;;;10.50;55.81
11987;BME280;6053;51.382;6.768;2024-01-27T04:08:26;103351.53;;;10.49;55.83
11987;BME280;6053;51.382;6.768;2024-01-27T04:10:59;103355.03;;;10.46;55.88
11987;BME280;6053;51.382;6.768;2024-01-27T04:13:34;103352.66;;;10.44;55.84
11987;BME280;6053;51.382;6.768;2024-01-27T04:16:03;103348.66;;;10.42;55.93
11987;BME280;6053;51.382;6.768;2024-01-27T04:18:32;103364.75;;;10.36;55.90
11987;BME280;6053;51.382;6.768;2024-01-27T04:21:01;103354.59;;;10.44;55.57
11987;BME280;6053;51.382;6.768;2024-01-27T04:23:33;103358.84;;;10.38;55.74
11987;BME280;6053;51.382;6.768;2024-01-27T04:26:03;103366.75;;;10.39;55.78
11987;BME280;6053;51.382;6.768;2024-01-27T04:28:33;103364.78;;;10.40;55.68
11987;BME280;6053;51.382;6.768;2024-01-27T04:31:02;103368.59;;;10.32;55.95
11987;BME280;6053;51.382;6.768;2024-01-27T04:33:34;103373.81;;;10.37;55.69
11987;BME280;6053;51.382;6.768;2024-01-27T04:36:03;103363.84;;;10.32;55.77
11987;BME280;6053;51.382;6.768;2024-01-27T04:38:32;103371.81;;;10.34;55.77
11987;BME280;6053;51.382;6.768;2024-01-27T04:41:04;103373.75;;;10.33;55.61
11987;BME280;6053;51.382;6.768;2024-01-27T04:43:33;103369.31;;;10.29;55.55
11987;BME280;6053;51.382;6.768;2024-01-27T04:46:01;103372.09;;;10.29;55.83
11987;BME280;6053;51.382;6.768;2024-01-27T04:48:30;103372.03;;;10.25;55.82
11987;BME280;6053;51.382;6.768;2024-01-27T04:51:02;103357.88;;;10.27;55.68
11987;BME280;6053;51.382;6.768;2024-01-27T04:53:30;103365.72;;;10.25;55.55
11987;BME280;6053;51.382;6.768;2024-01-27T04:56:04;103371.28;;;10.28;55.63
11987;BME280;6053;51.382;6.768;2024-01-27T04:58:43;103358.59;;;10.24;55.65
11987;BME280;6053;51.382;6.768;2024-01-27T05:01:18;103341.03;;;10.13;55.77
11987;BME280;6053;51.382;6.768;2024-01-27T05:03:55;103354.91;;;10.16;55.70
11987;BME280;6053;51.382;6.768;2024-01-27T05:06:24;103351.28;;;10.12;55.87
11987;BME280;6053;51.382;6.768;2024-01-27T05:08:56;103357.59;;;10.13;55.71
11987;BME280;6053;51.382;6.768;2024-01-27T05:11:30;103344.09;;;10.08;55.70
11987;BME280;6053;51.382;6.768;2024-01-27T05:14:05;103361.47;;;10.08;55.91
11987;BME280;6053;51.382;6.768;2024-01-27T05:16:33;103357.16;;;10.11;55.69
11987;BME280;6053;51.382;6.768;2024-01-27T05:19:02;103347.66;;;10.08;55.69
11987;BME280;6053;51.382;6.768;2024-01-27T05:21:31;103359.81;;;10.04;55.70
11987;BME280;6053;51.382;6.768;2024-01-27T05:24:00;103356.44;;;9.95;55.93
11987;BME280;6053;51.382;6.768;2024-01-27T05:26:30;103349.63;;;9.89;56.09
11987;BME280;6053;51.382;6.768;2024-01-27T05:29:02;103352.16;;;9.97;55.96
11987;BME280;6053;51.382;6.768;2024-01-27T05:31:30;103350.22;;;9.98;55.83
11987;BME280;6053;51.382;6.768;2024-01-27T05:33:59;103345.50;;;9.98;55.86
11987;BME280;6053;51.382;6.768;2024-01-27T05:36:34;103344.53;;;9.91;56.04
11987;BME280;6053;51.382;6.768;2024-01-27T05:39:03;103359.88;;;9.70;55.96
11987;BME280;6053;51.382;6.768;2024-01-27T05:41:34;103360.66;;;9.70;56.32
11987;BME280;6053;51.382;6.768;2024-01-27T05:44:03;103366.81;;;9.26;57.06
11987;BME280;6053;51.382;6.768;2024-01-27T05:46:31;103368.56;;;9.15;57.47
11987;BME280;6053;51.382;6.768;2024-01-27T05:49:02;103370.19;;;9.54;57.08
11987;BME280;6053;51.382;6.768;2024-01-27T05:51:37;103367.34;;;9.50;57.01
11987;BME280;6053;51.382;6.768;2024-01-27T05:54:09;103363.56;;;9.39;57.41
11987;BME280;6053;51.382;6.768;2024-01-27T05:56:53;103369.44;;;9.38;57.19
11987;BME280;6053;51.382;6.768;2024-01-27T05:59:26;103358.28;;;9.50;56.81
11987;BME280;6053;51.382;6.768;2024-01-27T06:01:54;103361.22;;;9.22;56.79
11987;BME280;6053;51.382;6.768;2024-01-27T06:04:30;103364.22;;;8.99;58.08
11987;BME280;6053;51.382;6.768;2024-01-27T06:07:00;103358.34;;;9.00;58.72
11987;BME280;6053;51.382;6.768;2024-01-27T06:09:40;103369.53;;;9.07;57.80
11987;BME280;6053;51.382;6.768;2024-01-27T06:12:27;103361.91;;;9.35;56.97
11987;BME280;6053;51.382;6.768;2024-01-27T06:14:56;103370.66;;;9.21;57.39
11987;BME280;6053;51.382;6.768;2024-01-27T06:17:26;103371.53;;;9.25;57.77
11987;BME280;6053;51.382;6.768;2024-01-27T06:20:05;103375.22;;;8.99;58.23
11987;BME280;6053;51.382;6.768;2024-01-27T06:22:34;103364.53;;;9.12;58.23
11987;BME280;6053;51.382;6.768;2024-01-27T06:25:07;103367.19;;;9.43;56.87
11987;BME280;6053;51.382;6.768;2024-01-27T06:27:37;103372.63;;;9.21;57.70
11987;BME280;6053;51.382;6.768;2024-01-27T06:30:10;103371.84;;;9.05;58.25
11987;BME280;6053;51.382;6.768;2024-01-27T06:32:39;103376.75;;;9.12;57.67
11987;BME280;6053;51.382;6.768;2024-01-27T06:35:18;103387.00;;;8.80;57.89
11987;BME280;6053;51.382;6.768;2024-01-27T06:37:46;103380.91;;;9.06;58.27
11987;BME280;6053;51.382;6.768;2024-01-27T06:40:27;103378.81;;;9.33;56.96
11987;BME280;6053;51.382;6.768;2024-01-27T06:42:56;103399.50;;;9.09;57.73
11987;BME280;6053;51.382;6.768;2024-01-27T06:45:31;103378.56;;;9.23;57.19
11987;BME280;6053;51.382;6.768;2024-01-27T06:47:59;103388.94;;;9.29;57.07
11987;BME280;6053;51.382;6.768;2024-01-27T06:50:37;103395.34;;;9.33;57.02
11987;BME280;6053;51.382;6.768;2024-01-27T06:53:11;103395.66;;;9.47;56.65
11987;BME280;6053;51.382;6.768;2024-01-27T06:55:42;103403.56;;;9.49;56.48
11987;BME280;6053;51.382;6.768;2024-01-27T06:58:14;103405.38;;;9.41;56.55
11987;BME280;6053;51.382;6.768;2024-01-27T07:00:51;103401.59;;;9.30;56.45
11987;BME280;6053;51.382;6.768;2024-01-27T07:03:27;103410.31;;;9.17;57.44
11987;BME280;6053;51.382;6.768;2024-01-27T07:05:55;103404.28;;;9.46;56.43
11987;BME280;6053;51.382;6.768;2024-01-27T07:08:33;103394.19;;;9.34;56.56
11987;BME280;6053;51.382;6.768;2024-01-27T07:11:04;103399.50;;;9.43;56.21
11987;BME280;6053;51.382;6.768;2024-01-27T07:13:34;103393.31;;;9.49;56.34
11987;BME280;6053;51.382;6.768;2024-01-27T07:16:04;103406.53;;;9.40;56.47
11987;BME280;6053;51.382;6.768;2024-01-27T07:18:32;103417.38;;;9.49;56.05
11987;BME280;6053;51.382;6.768;2024-01-27T07:21:03;103400.75;;;9.45;56.18
11987;BME280;6053;51.382;6.768;2024-01-27T07:23:35;103418.25;;;9.18;57.04
11987;BME280;6053;51.382;6.768;2024-01-27T07:26:03;103412.78;;;9.37;56.17
11987;BME280;6053;51.382;6.768;2024-01-27T07:28:33;103414.81;;;9.40;56.26
11987;BME280;6053;51.382;6.768;2024-01-27T07:31:02;103408.69;;;9.31;56.42
11987;BME280;6053;51.382;6.768;2024-01-27T07:33:37;103415.75;;;9.29;56.28
11987;BME280;6053;51.382;6.768;2024-01-27T07:36:09;103426.34;;;9.46;55.75
11987;BME280;6053;51.382;6.768;2024-01-27T07:38:41;103416.53;;;9.29;56.40
11987;BME280;6053;51.382;6.768;2024-01-27T07:41:10;103419.81;;;9.35;56.03
11987;BME280;6053;51.382;6.768;2024-01-27T07:43:39;103416.63;;;8.68;57.03
11987;BME280;6053;51.382;6.768;2024-01-27T07:46:13;103431.81;;;8.77;57.66
11987;BME280;6053;51.382;6.768;2024-01-27T07:48:43;103430.53;;;9.06;57.16
11987;BME280;6053;51.382;6.768;2024-01-27T07:51:12;103434.63;;;8.96;57.46
11987;BME280;6053;51.382;6.768;2024-01-27T07:53:43;103431.44;;;9.10;56.83
11987;BME280;6053;51.382;6.768;2024-01-27T07:56:12;103432.69;;;7.96;59.02
11987;BME280;6053;51.382;6.768;2024-01-27T07:58:42;103430.38;;;7.70;59.36
11987;BME280;6053;51.382;6.768;2024-01-27T08:01:14;103450.47;;;8.26;59.40
11987;BME280;6053;51.382;6.768;2024-01-27T08:03:46;103440.88;;;7.29;59.77
11987;BME280;6053;51.382;6.768;2024-01-27T08:06:17;103450.22;;;8.31;59.63
11987;BME280;6053;51.382;6.768;2024-01-27T08:08:49;103453.41;;;8.60;58.72
11987;BME280;6053;51.382;6.768;2024-01-27T08:11:23;103450.00;;;8.97;57.46
11987;BME280;6053;51.382;6.768;2024-01-27T08:13:53;103453.41;;;8.05;57.55
11987;BME280;6053;51.382;6.768;2024-01-27T08:16:25;103460.41;;;8.73;58.26
11987;BME280;6053;51.382;6.768;2024-01-27T08:18:53;103462.31;;;7.87;60.45
11987;BME280;6053;51.382;6.768;2024-01-27T08:21:22;103455.72;;;8.31;59.35
11987;BME280;6053;51.382;6.768;2024-01-27T08:23:53;103459.97;;;7.73;61.58
11987;BME280;6053;51.382;6.768;2024-01-27T08:26:29;103459.13;;;8.39;59.05
11987;BME280;6053;51.382;6.768;2024-01-27T08:28:59;103464.56;;;7.57;62.16
11987;BME280;6053;51.382;6.768;2024-01-27T08:31:29;103463.31;;;6.72;62.51
11987;BME280;6053;51.382;6.768;2024-01-27T08:33:58;103472.16;;;7.25;63.01
11987;BME280;6053;51.382;6.768;2024-01-27T08:36:26;103465.63;;;6.82;64.07
11987;BME280;6053;51.382;6.768;2024-01-27T08:38:55;103472.25;;;7.91;61.00
11987;BME280;6053;51.382;6.768;2024-01-27T08:41:29;103466.09;;;8.80;58.09
11987;BME280;6053;51.382;6.768;2024-01-27T08:44:02;103461.91;;;8.00;60.48
11987;BME280;6053;51.382;6.768;2024-01-27T08:46:30;103463.31;;;6.72;61.16
11987;BME280;6053;51.382;6.768;2024-01-27T08:49:04;103465.25;;;7.55;61.60
11987;BME280;6053;51.382;6.768;2024-01-27T08:51:36;103458.25;;;7.69;61.11
11987;BME280;6053;51.382;6.768;2024-01-27T08:54:07;103462.06;;;6.69;62.11
11987;BME280;6053;51.382;6.768;2024-01-27T08:56:40;103463.69;;;7.81;61.53
11987;BME280;6053;51.382;6.768;2024-01-27T08:59:12;103462.31;;;7.12;60.40
11987;BME280;6053;51.382;6.768;2024-01-27T09:01:41;103460.78;;;7.50;60.08
11987;BME280;6053;51.382;6.768;2024-01-27T09:04:10;103462.00;;;8.16;60.40
11987;BME280;6053;51.382;6.768;2024-01-27T09:06:41;103452.09;;;7.36;60.80
11987;BME280;6053;51.382;6.768;2024-01-27T09:09:12;103459.38;;;7.68;61.35
11987;BME280;6053;51.382;6.768;2024-01-27T09:11:50;103459.81;;;8.09;60.34
11987;BME280;6053;51.382;6.768;2024-01-27T09:14:22;103469.28;;;8.66;58.65
11987;BME280;6053;51.382;6.768;2024-01-27T09:16:53;103473.75;;;7.26;60.96
11987;BME280;6053;51.382;6.768;2024-01-27T09:19:21;103472.03;;;6.85;62.49
11987;BME280;6053;51.382;6.768;2024-01-27T09:21:50;103466.16;;;6.63;61.39
11987;BME280;6053;51.382;6.768;2024-01-27T09:24:18;103459.56;;;7.12;61.14
11987;BME280;6053;51.382;6.768;2024-01-27T09:26:46;103463.97;;;7.76;59.16
11987;BME280;6053;51.382;6.768;2024-01-27T09:29:15;103465.88;;;8.15;59.77
11987;BME280;6053;51.382;6.768;2024-01-27T09:31:46;103461.41;;;7.83;59.86
11987;BME280;6053;51.382;6.768;2024-01-27T09:34:14;103455.69;;;8.03;59.14
11987;BME280;6053;51.382;6.768;2024-01-27T09:36:43;103455.00;;;8.06;60.68
11987;BME280;6053;51.382;6.768;2024-01-27T09:39:15;103453.72;;;8.16;59.81
11987;BME280;6053;51.382;6.768;2024-01-27T09:41:43;103449.63;;;7.19;61.02
11987;BME280;6053;51.382;6.768;2024-01-27T09:44:22;103448.81;;;7.07;63.20
11987;BME280;6053;51.382;6.768;2024-01-27T09:46:55;103456.72;;;5.67;64.84
11987;BME280;6053;51.382;6.768;2024-01-27T09:49:31;103439.84;;;7.34;63.33
11987;BME280;6053;51.382;6.768;2024-01-27T09:52:02;103455.19;;;6.87;60.85
11987;BME280;6053;51.382;6.768;2024-01-27T09:54:31;103443.66;;;7.17;62.17
11987;BME280;6053;51.382;6.768;2024-01-27T09:56:59;103459.22;;;7.88;60.18
11987;BME280;6053;51.382;6.768;2024-01-27T09:59:28;103447.25;;;7.96;60.94
11987;BME280;6053;51.382;6.768;2024-01-27T10:01:58;103456.75;;;8.69;56.22
11987;BME280;6053;51.382;6.768;2024-01-27T10:04:27;103462.50;;;9.41;56.16
11987;BME280;6053;51.382;6.768;2024-01-27T10:06:59;103469.66;;;8.80;57.06
11987;BME280;6053;51.382;6.768;2024-01-27T10:09:34;103473.41;;;9.18;55.38
11987;BME280;6053;51.382;6.768;2024-01-27T10:12:06;103476.91;;;9.50;56.00
11987;BME280;6053;51.382;6.768;2024-01-27T10:14:39;103485.91;;;8.70;58.43
11987;BME280;6053;51.382;6.768;2024-01-27T10:17:19;103485.47;;;9.29;56.52
11987;BME280;6053;51.382;6.768;2024-01-27T10:19:58;103499.00;;;9.69;55.22
11987;BME280;6053;51.382;6.768;2024-01-27T10:22:40;103489.94;;;9.53;54.73
11987;BME280;6053;51.382;6.768;2024-01-27T10:25:23;103486.31;;;10.59;52.82
11987;BME280;6053;51.382;6.768;2024-01-27T10:27:56;103493.06;;;9.02;55.90
11987;BME280;6053;51.382;6.768;2024-01-27T10:30:24;103489.31;;;9.59;55.50
11987;BME280;6053;51.382;6.768;2024-01-27T10:32:57;103483.78;;;9.40;56.27
11987;BME280;6053;51.382;6.768;2024-01-27T10:35:26;103478.31;;;9.78;55.54
11987;BME280;6053;51.382;6.768;2024-01-27T10:38:00;103491.16;;;7.93;57.52
11987;BME280;6053;51.382;6.768;2024-01-27T10:40:29;103493.13;;;9.20;57.51
11987;BME280;6053;51.382;6.768;2024-01-27T10:43:02;103487.09;;;8.84;55.36
11987;BME280;6053;51.382;6.768;2024-01-27T10:45:43;103490.81;;;8.61;58.68
11987;BME280;6053;51.382;6.768;2024-01-27T10:48:13;103490.53;;;8.66;58.59
11987;BME280;6053;51.382;6.768;2024-01-27T10:50:45;103489.38;;;8.24;58.92
11987;BME280;6053;51.382;6.768;2024-01-27T10:53:22;103489.03;;;7.86;60.39
11987;BME280;6053;51.382;6.768;2024-01-27T10:55:54;103492.28;;;6.81;62.62
11987;BME280;6053;51.382;6.768;2024-01-27T10:58:27;103484.19;;;7.95;61.70
11987;BME280;6053;51.382;6.768;2024-01-27T11:00:56;103468.13;;;8.52;59.51
11987;BME280;6053;51.382;6.768;2024-01-27T11:03:29;103479.16;;;7.22;63.14
11987;BME280;6053;51.382;6.768;2024-01-27T11:06:03;103475.69;;;8.00;61.02
11987;BME280;6053;51.382;6.768;2024-01-27T11:08:36;103484.41;;;7.90;59.46
11987;BME280;6053;51.382;6.768;2024-01-27T11:11:10;103481.97;;;8.01;61.60
11987;BME280;6053;51.382;6.768;2024-01-27T11:13:48;103471.56;;;7.55;61.98
11987;BME280;6053;51.382;6.768;2024-01-27T11:16:19;103481.47;;;8.65;60.13
11987;BME280;6053;51.382;6.768;2024-01-27T11:18:55;103480.97;;;7.93;59.71
11987;BME280;6053;51.382;6.768;2024-01-27T11:21:33;103476.75;;;7.21;62.78
11987;BME280;6053;51.382;6.768;2024-01-27T11:24:13;103484.19;;;7.32;64.23
11987;BME280;6053;51.382;6.768;2024-01-27T11:26:42;103478.22;;;7.42;62.99
11987;BME280;6053;51.382;6.768;2024-01-27T11:29:20;103482.81;;;7.89;62.94
11987;BME280;6053;51.382;6.768;2024-01-27T11:31:52;103487.16;;;8.57;60.44
11987;BME280;6053;51.382;6.768;2024-01-27T11:34:24;103472.63;;;8.44;60.03
11987;BME280;6053;51.382;6.768;2024-01-27T11:36:55;103472.09;;;8.12;60.68
11987;BME280;6053;51.382;6.768;2024-01-27T11:39:33;103473.81;;;8.04;61.77
11987;BME280;6053;51.382;6.768;2024-01-27T11:42:05;103479.16;;;7.22;62.18
11987;BME280;6053;51.382;6.768;2024-01-27T11:44:34;103480.81;;;7.62;62.13
11987;BME280;6053;51.382;6.768;2024-01-27T11:47:04;103472.38;;;7.32;63.11
11987;BME280;6053;51.382;6.768;2024-01-27T11:49:40;103481.09;;;7.97;63.09
11987;BME280;6053;51.382;6.768;2024-01-27T11:52:15;103480.66;;;8.49;60.74
11987;BME280;6053;51.382;6.768;2024-01-27T11:54:56;103478.28;;;8.21;59.97
11987;BME280;6053;51.382;6.768;2024-01-27T11:57:28;103476.44;;;8.13;62.09
11987;BME280;6053;51.382;6.768;2024-01-27T11:59:57;103468.56;;;7.60;61.86
11987;BME280;6053;51.382;6.768;2024-01-27T12:02:29;103472.69;;;8.17;62.16
11987;BME280;6053;51.382;6.768;2024-01-27T12:04:59;103457.78;;;7.67;61.36
11987;BME280;6053;51.382;6.768;2024-01-27T12:07:27;103467.25;;;8.63;60.93
11987;BME280;6053;51.382;6.768;2024-01-27T12:09:59;103469.75;;;8.84;59.75
11987;BME280;6053;51.382;6.768;2024-01-27T12:12:28;103466.16;;;8.37;60.24
11987;BME280;6053;51.382;6.768;2024-01-27T12:14:59;103465.13;;;8.02;61.33
11987;BME280;6053;51.382;6.768;2024-01-27T12:17:29;103466.63;;;8.70;60.35
11987;BME280;6053;51.382;6.768;2024-01-27T12:19:59;103466.19;;;8.83;60.19
11987;BME280;6053;51.382;6.768;2024-01-27T12:22:29;103458.13;;;8.32;59.28
11987;BME280;6053;51.382;6.768;2024-01-27T12:25:09;103459.19;;;8.28;61.75
11987;BME280;6053;51.382;6.768;2024-01-27T12:27:39;103449.56;;;8.22;60.78
11987;BME280;6053;51.382;6.768;2024-01-27T12:30:09;103455.66;;;7.88;62.10
11987;BME280;6053;51.382;6.768;2024-01-27T12:32:37;103453.47;;;7.42;64.35
11987;BME280;6053;51.382;6.768;2024-01-27T12:35:08;103452.94;;;8.15;61.89
11987;BME280;6053;51.382;6.768;2024-01-27T12:37:43;103446.47;;;7.96;61.21
11987;BME280;6053;51.382;6.768;2024-01-27T12:40:17;103438.47;;;7.79;61.60
11987;BME280;6053;51.382;6.768;2024-01-27T12:42:53;103443.25;;;7.94;62.13
11987;BME280;6053;51.382;6.768;2024-01-27T12:45:31;103443.88;;;8.15;61.18
11987;BME280;6053;51.382;6.768;2024-01-27T12:48:02;103449.38;;;7.87;61.10
11987;BME280;6053;51.382;6.768;2024-01-27T12:50:39;103447.53;;;8.19;61.04
11987;BME280;6053;51.382;6.768;2024-01-27T12:53:14;103448.06;;;8.67;60.75
11987;BME280;6053;51.382;6.768;2024-01-27T12:55:42;103444.19;;;8.13;58.48
11987;BME280;6053;51.382;6.768;2024-01-27T12:58:16;103449.81;;;8.44;59.04
11987;BME280;6053;51.382;6.768;2024-01-27T13:00:45;103450.63;;;8.60;60.15
11987;BME280;6053;51.382;6.768;2024-01-27T13:03:16;103446.38;;;8.93;60.04
11987;BME280;6053;51.382;6.768;2024-01-27T13:05:58;103441.03;;;8.85;59.07
11987;BME280;6053;51.382;6.768;2024-01-27T13:08:27;103439.13;;;8.27;60.80
11987;BME280;6053;51.382;6.768;2024-01-27T13:10:55;103440.44;;;8.33;60.57
11987;BME280;6053;51.382;6.768;2024-01-27T13:13:24;103434.25;;;8.36;59.36
11987;BME280;6053;51.382;6.768;2024-01-27T13:15:52;103440.50;;;8.64;58.27
11987;BME280;6053;51.382;6.768;2024-01-27T13:18:22;103423.28;;;8.67;60.35
11987;BME280;6053;51.382;6.768;2024-01-27T13:20:54;103427.97;;;8.36;57.89
11987;BME280;6053;51.382;6.768;2024-01-27T13:23:33;103428.63;;;8.05;60.77
11987;BME280;6053;51.382;6.768;2024-01-27T13:26:02;103430.72;;;8.66;60.47
11987;BME280;6053;51.382;6.768;2024-01-27T13:28:50;103427.97;;;8.36;60.52
11987;BME280;6053;51.382;6.768;2024-01-27T13:31:18;103430.34;;;8.52;60.25